createdAt,value
2019-03-18T00:01:35.616Z,1.10
2019-03-18T00:04:05.237Z,1.00
2019-03-18T00:06:33.946Z,0.90
2019-03-18T00:09:02.643Z,1.30
2019-03-18T00:11:31.329Z,0.85
2019-03-18T00:13:59.971Z,1.37
2019-03-18T00:16:28.631Z,1.00
2019-03-18T00:18:57.331Z,1.05
2019-03-18T00:21:26.045Z,1.12
2019-03-18T00:23:55.688Z,1.17
2019-03-18T00:26:24.385Z,0.90
2019-03-18T00:28:53.045Z,1.05
2019-03-18T00:31:21.711Z,0.70
2019-03-18T00:33:50.483Z,1.10
2019-03-18T00:36:19.115Z,0.90
2019-03-18T00:38:47.821Z,1.00
2019-03-18T00:41:16.585Z,1.30
2019-03-18T00:43:45.331Z,0.90
2019-03-18T00:46:13.991Z,0.98
2019-03-18T00:48:42.626Z,1.10
2019-03-18T00:51:11.297Z,0.88
2019-03-18T00:53:40.067Z,0.90
2019-03-18T00:56:08.743Z,0.98
2019-03-18T00:58:37.459Z,1.40
2019-03-18T01:01:06.132Z,0.90
2019-03-18T01:03:34.853Z,1.00
2019-03-18T01:06:03.545Z,1.17
2019-03-18T01:08:32.215Z,1.25
2019-03-18T01:11:00.864Z,1.00
2019-03-18T01:13:30.482Z,0.82
2019-03-18T01:15:59.139Z,0.88
2019-03-18T01:18:27.827Z,1.20
2019-03-18T01:20:56.574Z,1.00
2019-03-18T01:23:25.294Z,0.90
2019-03-18T01:25:53.931Z,1.00
2019-03-18T01:28:22.683Z,0.70
2019-03-18T01:30:51.377Z,1.00
2019-03-18T01:33:20.098Z,1.12
2019-03-18T01:35:48.832Z,1.00
2019-03-18T01:38:17.513Z,0.70
2019-03-18T01:40:46.311Z,1.10
2019-03-18T01:43:14.999Z,0.80
2019-03-18T01:45:44.716Z,0.90
2019-03-18T01:48:13.453Z,0.80
2019-03-18T01:50:43.227Z,0.80
2019-03-18T01:53:11.879Z,0.93
2019-03-18T01:55:40.664Z,0.90
2019-03-18T01:58:10.393Z,1.02
2019-03-18T02:00:39.139Z,1.00
2019-03-18T02:03:07.868Z,0.80
2019-03-18T02:05:36.593Z,0.80
2019-03-18T02:08:05.243Z,0.70
2019-03-18T02:10:34.417Z,0.80
2019-03-18T02:13:03.141Z,0.68
2019-03-18T02:15:31.792Z,0.60
2019-03-18T02:18:00.509Z,0.70
2019-03-18T02:20:29.681Z,0.50
2019-03-18T02:22:58.311Z,0.60
2019-03-18T02:25:26.975Z,0.60
2019-03-18T02:27:55.659Z,1.00
2019-03-18T02:30:24.456Z,0.75
2019-03-18T02:32:54.379Z,0.87
2019-03-18T02:35:23.062Z,0.90
2019-03-18T02:37:51.731Z,1.00
2019-03-18T02:40:20.483Z,1.02
2019-03-18T02:42:49.255Z,0.82
2019-03-18T02:45:17.955Z,0.90
2019-03-18T02:47:46.678Z,0.97
2019-03-18T02:50:15.426Z,0.80
2019-03-18T02:52:44.077Z,0.70
2019-03-18T02:55:12.722Z,1.00
2019-03-18T02:57:41.434Z,1.03
2019-03-18T03:00:12.108Z,0.97
2019-03-18T03:02:40.850Z,1.03
2019-03-18T03:05:10.757Z,1.07
2019-03-18T03:07:39.502Z,0.82
2019-03-18T03:10:08.288Z,1.00
2019-03-18T03:12:37.037Z,0.90
2019-03-18T03:15:05.777Z,1.00
2019-03-18T03:17:34.522Z,0.88
2019-03-18T03:20:03.293Z,1.10
2019-03-18T03:22:31.953Z,1.03
2019-03-18T03:25:00.732Z,0.82
2019-03-18T03:27:29.397Z,0.80
2019-03-18T03:29:58.081Z,0.70
2019-03-18T03:32:26.741Z,1.13
2019-03-18T03:34:55.468Z,0.70
2019-03-18T03:37:24.307Z,0.90
2019-03-18T03:39:53.088Z,0.80
2019-03-18T03:42:21.811Z,0.80
2019-03-18T03:44:50.533Z,0.83
2019-03-18T03:47:19.352Z,0.90
2019-03-18T03:49:48.086Z,0.73
2019-03-18T03:52:16.756Z,0.68
2019-03-18T03:54:45.427Z,0.70
2019-03-18T03:57:14.163Z,0.80
2019-03-18T03:59:42.883Z,0.80
2019-03-18T04:02:11.650Z,0.80
2019-03-18T04:04:40.321Z,1.07
2019-03-18T04:07:09.054Z,1.05
2019-03-18T04:09:37.759Z,0.90
2019-03-18T04:12:06.407Z,0.80
2019-03-18T04:14:35.055Z,0.98
2019-03-18T04:17:03.715Z,0.83
2019-03-18T04:19:32.387Z,0.95
2019-03-18T04:22:01.110Z,1.02
2019-03-18T04:24:29.809Z,0.93
2019-03-18T04:26:58.507Z,1.00
2019-03-18T04:29:27.133Z,1.10
2019-03-18T04:31:57.880Z,1.17
2019-03-18T04:34:26.544Z,1.23
2019-03-18T04:36:55.312Z,0.98
2019-03-18T04:39:23.962Z,1.20
2019-03-18T04:41:52.614Z,1.30
2019-03-18T04:44:21.276Z,0.98
2019-03-18T04:46:49.930Z,1.05
2019-03-18T04:49:18.595Z,1.20
2019-03-18T04:51:47.323Z,1.75
2019-03-18T04:54:16.019Z,1.13
2019-03-18T04:56:44.761Z,1.25
2019-03-18T04:59:13.406Z,1.57
2019-03-18T05:01:42.133Z,1.00
2019-03-18T05:04:10.883Z,1.10
2019-03-18T05:06:40.704Z,0.95
2019-03-18T05:09:09.399Z,1.35
2019-03-18T05:11:38.076Z,1.30
2019-03-18T05:14:06.724Z,1.35
2019-03-18T05:16:35.477Z,1.45
2019-03-18T05:19:04.205Z,1.30
2019-03-18T05:21:32.876Z,1.70
2019-03-18T05:24:01.542Z,1.52
2019-03-18T05:26:30.180Z,1.43
2019-03-18T05:28:58.922Z,1.57
2019-03-18T05:31:27.691Z,1.37
2019-03-18T05:33:56.483Z,1.45
2019-03-18T05:36:25.170Z,1.43
2019-03-18T05:38:53.844Z,1.53
2019-03-18T05:41:22.508Z,1.50
2019-03-18T05:43:51.194Z,1.67
2019-03-18T05:46:19.828Z,1.45
2019-03-18T05:48:48.600Z,1.60
2019-03-18T05:51:17.267Z,1.52
2019-03-18T05:53:45.947Z,1.43
2019-03-18T05:56:14.612Z,1.60
2019-03-18T05:58:43.357Z,1.60
2019-03-18T06:01:12.039Z,1.90
2019-03-18T06:03:40.741Z,1.50
2019-03-18T06:06:09.400Z,1.72
2019-03-18T06:08:38.063Z,1.95
2019-03-18T06:11:06.802Z,1.87
2019-03-18T06:13:35.501Z,1.67
2019-03-18T06:16:04.240Z,2.10
2019-03-18T06:18:33.022Z,1.90
2019-03-18T06:21:01.801Z,1.80
2019-03-18T06:23:30.501Z,1.80
2019-03-18T06:25:59.184Z,1.87
2019-03-18T06:28:27.981Z,2.05
2019-03-18T06:30:56.802Z,1.50
2019-03-18T06:33:25.460Z,1.70
2019-03-18T06:35:54.185Z,2.00
2019-03-18T06:38:22.953Z,2.20
2019-03-18T06:40:51.706Z,2.20
2019-03-18T06:43:20.358Z,2.30
2019-03-18T06:45:49.057Z,1.93
2019-03-18T06:48:17.790Z,2.35
2019-03-18T06:50:46.543Z,2.20
2019-03-18T06:53:15.285Z,2.17
2019-03-18T06:55:43.937Z,2.40
2019-03-18T06:58:12.669Z,1.90
2019-03-18T07:00:41.342Z,2.00
2019-03-18T07:03:10.026Z,1.72
2019-03-18T07:05:38.733Z,2.22
2019-03-18T07:08:07.483Z,1.90
2019-03-18T07:10:36.315Z,2.33
2019-03-18T07:13:05.135Z,1.80
2019-03-18T07:15:33.862Z,1.70
2019-03-18T07:18:02.645Z,1.77
2019-03-18T07:20:32.548Z,1.67
2019-03-18T07:23:01.310Z,1.77
2019-03-18T07:25:30.134Z,2.05
2019-03-18T07:28:00.946Z,1.90
2019-03-18T07:30:30.643Z,2.05
2019-03-18T07:32:59.629Z,1.90
2019-03-18T07:35:28.414Z,2.03
2019-03-18T07:37:57.266Z,2.10
2019-03-18T07:40:26.085Z,1.90
2019-03-18T07:42:54.851Z,2.53
2019-03-18T07:45:23.545Z,2.10
2019-03-18T07:47:52.332Z,2.12
2019-03-18T07:50:21.025Z,2.20
2019-03-18T07:52:49.714Z,2.37
2019-03-18T07:55:18.358Z,2.00
2019-03-18T07:57:48.156Z,1.90
2019-03-18T08:00:16.965Z,1.70
2019-03-18T08:02:45.729Z,1.85
2019-03-18T08:05:14.532Z,2.22
2019-03-18T08:07:43.285Z,2.00
2019-03-18T08:10:11.978Z,1.87
2019-03-18T08:12:42.288Z,1.72
2019-03-18T08:15:10.972Z,1.80
2019-03-18T08:17:39.671Z,1.75
2019-03-18T08:20:08.397Z,2.05
2019-03-18T08:22:37.196Z,1.87
2019-03-18T08:25:05.940Z,2.00
2019-03-18T08:27:34.611Z,1.37
2019-03-18T08:30:03.382Z,2.00
2019-03-18T08:32:32.127Z,1.55
2019-03-18T08:35:00.843Z,1.30
2019-03-18T08:37:29.547Z,1.60
2019-03-18T08:39:58.271Z,1.83
2019-03-18T08:42:26.990Z,1.30
2019-03-18T08:44:56.770Z,1.60
2019-03-18T08:47:25.431Z,1.50
2019-03-18T08:49:54.139Z,1.07
2019-03-18T08:52:22.923Z,1.50
2019-03-18T08:54:51.608Z,1.80
2019-03-18T08:57:20.267Z,2.07
2019-03-18T08:59:49.003Z,1.90
2019-03-18T09:02:18.923Z,1.80
2019-03-18T09:04:47.754Z,2.10
2019-03-18T09:07:16.537Z,2.17
2019-03-18T09:09:45.338Z,2.10
2019-03-18T09:12:14.086Z,2.08
2019-03-18T09:14:42.794Z,2.05
2019-03-18T09:17:12.530Z,1.73
2019-03-18T09:19:41.190Z,1.60
2019-03-18T09:22:09.977Z,1.87
2019-03-18T09:24:38.617Z,1.73
2019-03-18T09:27:07.306Z,1.45
2019-03-18T09:29:36.025Z,2.00
2019-03-18T09:32:05.706Z,1.95
2019-03-18T09:34:34.469Z,2.00
2019-03-18T09:37:03.138Z,1.90
2019-03-18T09:39:32.893Z,2.12
2019-03-18T09:42:01.638Z,1.90
2019-03-18T09:44:30.469Z,2.60
2019-03-18T09:46:59.297Z,1.90
2019-03-18T09:49:27.954Z,1.52
2019-03-18T09:51:56.726Z,1.75
2019-03-18T09:54:25.572Z,1.92
2019-03-18T09:56:54.325Z,1.80
2019-03-18T09:59:22.961Z,1.70
2019-03-18T10:01:51.743Z,1.90
2019-03-18T10:04:20.519Z,1.40
2019-03-18T10:06:49.327Z,1.42
2019-03-18T10:09:18.062Z,1.60
2019-03-18T10:11:46.960Z,1.60
2019-03-18T10:14:15.702Z,1.83
2019-03-18T10:16:44.381Z,1.98
2019-03-18T10:19:13.083Z,2.00
2019-03-18T10:21:41.774Z,1.98
2019-03-18T10:24:10.529Z,2.75
2019-03-18T10:26:39.552Z,2.17
2019-03-18T10:29:08.357Z,1.80
2019-03-18T10:31:37.092Z,2.27
2019-03-18T10:34:06.046Z,2.30
2019-03-18T10:36:34.741Z,2.20
2019-03-18T10:39:03.895Z,1.98
2019-03-18T10:41:32.588Z,2.27
2019-03-18T10:44:01.363Z,1.80
2019-03-18T10:46:30.135Z,1.57
2019-03-18T10:48:58.913Z,1.67
2019-03-18T10:51:27.730Z,1.67
2019-03-18T10:53:56.418Z,1.95
2019-03-18T10:56:25.158Z,1.27
2019-03-18T10:58:53.974Z,1.15
2019-03-18T11:01:22.799Z,1.47
2019-03-18T11:03:51.509Z,1.60
2019-03-18T11:06:20.233Z,1.60
2019-03-18T11:08:48.973Z,1.72
2019-03-18T11:11:17.713Z,2.10
2019-03-18T11:13:46.413Z,2.17
2019-03-18T11:16:15.155Z,2.25
2019-03-18T11:18:43.832Z,2.10
2019-03-18T11:21:12.702Z,2.17
2019-03-18T11:23:41.441Z,2.45
2019-03-18T11:26:10.257Z,2.00
2019-03-18T11:28:38.921Z,1.70
2019-03-18T11:31:07.735Z,1.10
2019-03-18T11:33:36.421Z,1.30
2019-03-18T11:36:05.106Z,1.33
2019-03-18T11:38:33.802Z,1.32
2019-03-18T11:41:02.577Z,1.82
2019-03-18T11:43:31.229Z,0.80
2019-03-18T11:45:59.964Z,1.52
2019-03-18T11:48:28.762Z,1.30
2019-03-18T11:50:57.527Z,1.20
2019-03-18T11:53:27.261Z,1.12
2019-03-18T11:55:56.025Z,1.07
2019-03-18T11:58:24.706Z,1.43
2019-03-18T12:00:53.401Z,1.50
2019-03-18T12:03:22.090Z,1.32
2019-03-18T12:05:50.894Z,1.90
2019-03-18T12:08:19.571Z,1.80
2019-03-18T12:10:48.329Z,1.75
2019-03-18T12:13:17.021Z,2.02
2019-03-18T12:15:45.944Z,2.00
2019-03-18T12:18:14.626Z,2.40
2019-03-18T12:20:43.315Z,2.00
2019-03-18T12:23:11.992Z,2.42
2019-03-18T12:25:40.768Z,1.83
2019-03-18T12:28:09.417Z,2.23
2019-03-18T12:30:38.107Z,1.53
2019-03-18T12:33:06.797Z,1.27
2019-03-18T12:35:35.472Z,1.25
2019-03-18T12:38:04.304Z,1.25
2019-03-18T12:40:33.097Z,1.70
2019-03-18T12:43:01.777Z,1.63
2019-03-18T12:45:30.492Z,1.95
2019-03-18T12:47:59.125Z,1.50
2019-03-18T12:52:58.350Z,1.70
2019-03-18T12:55:27.510Z,1.73
2019-03-18T12:57:56.291Z,2.23
2019-03-18T13:00:25.177Z,2.20
2019-03-18T13:02:53.858Z,2.00
2019-03-18T13:05:22.635Z,2.15
2019-03-18T13:07:52.353Z,1.30
2019-03-18T13:10:21.795Z,0.80
2019-03-18T13:12:50.808Z,1.00
2019-03-18T13:15:19.591Z,1.30
2019-03-18T13:17:48.240Z,1.15
2019-03-18T13:20:16.932Z,1.10
2019-03-18T13:22:46.616Z,0.73
2019-03-18T13:25:15.294Z,1.67
2019-03-18T13:27:44.155Z,1.10
2019-03-18T13:30:15.416Z,1.30
2019-03-18T13:32:44.420Z,1.20
2019-03-18T13:35:14.088Z,1.40
2019-03-18T13:37:42.904Z,1.63
2019-03-18T13:40:11.574Z,1.60
2019-03-18T13:42:40.296Z,1.32
2019-03-18T13:45:10.025Z,1.75
2019-03-18T13:47:41.755Z,1.40
2019-03-18T13:50:11.120Z,1.75
2019-03-18T13:52:39.861Z,1.30
2019-03-18T13:55:08.747Z,1.55
2019-03-18T13:57:37.396Z,1.10
2019-03-18T14:00:06.879Z,1.20
2019-03-18T14:02:35.531Z,1.30
2019-03-18T14:05:05.468Z,1.50
2019-03-18T14:07:34.257Z,1.67
2019-03-18T14:10:02.934Z,1.70
2019-03-18T14:12:31.767Z,1.33
2019-03-18T14:15:00.464Z,1.37
2019-03-18T14:17:29.105Z,1.30
2019-03-18T14:20:00.519Z,1.17
2019-03-18T14:22:28.216Z,1.52
2019-03-18T14:24:56.956Z,1.30
2019-03-18T14:27:25.968Z,1.35
2019-03-18T14:29:54.691Z,1.50
2019-03-18T14:32:24.524Z,1.80
2019-03-18T14:34:53.263Z,1.60
2019-03-18T14:37:22.071Z,1.77
2019-03-18T14:39:50.749Z,1.70
2019-03-18T14:42:19.419Z,2.07
2019-03-18T14:44:49.130Z,1.80
2019-03-18T14:47:17.852Z,1.80
2019-03-18T14:49:46.588Z,1.92
2019-03-18T14:52:15.352Z,1.87
2019-03-18T14:54:44.026Z,1.87
2019-03-18T14:57:12.777Z,0.97
2019-03-18T14:59:41.536Z,0.93
2019-03-18T15:02:11.237Z,0.90
2019-03-18T15:04:39.925Z,0.90
2019-03-18T15:07:08.628Z,0.97
2019-03-18T15:09:37.280Z,0.90
2019-03-18T15:12:05.969Z,1.00
2019-03-18T15:14:34.641Z,1.50
2019-03-18T15:17:03.399Z,1.37
2019-03-18T15:19:32.074Z,1.75
2019-03-18T15:22:00.711Z,1.40
2019-03-18T15:24:29.461Z,1.70
2019-03-18T15:26:58.181Z,1.17
2019-03-18T15:29:26.880Z,1.30
2019-03-18T15:31:55.530Z,1.55
2019-03-18T15:34:24.299Z,1.20
2019-03-18T15:36:53.046Z,1.10
2019-03-18T15:39:21.919Z,1.53
2019-03-18T15:41:50.678Z,1.23
2019-03-18T15:44:19.387Z,1.50
2019-03-18T15:46:48.121Z,1.37
2019-03-18T15:49:17.412Z,1.92
2019-03-18T15:51:46.243Z,1.77
2019-03-18T15:54:16.089Z,1.37
2019-03-18T15:56:44.778Z,1.42
2019-03-18T15:59:13.711Z,1.40
2019-03-18T16:01:45.003Z,1.10
2019-03-18T16:04:17.421Z,1.57
2019-03-18T16:06:47.780Z,1.50
2019-03-18T16:09:16.577Z,1.50
2019-03-18T16:11:45.380Z,1.65
2019-03-18T16:14:14.347Z,1.73
2019-03-18T16:16:43.201Z,1.40
2019-03-18T16:19:13.082Z,1.75
2019-03-18T16:21:41.899Z,1.45
2019-03-18T16:24:10.637Z,1.70
2019-03-18T16:26:40.507Z,1.50
2019-03-18T16:29:09.298Z,1.67
2019-03-18T16:31:38.162Z,1.50
2019-03-18T16:34:06.828Z,1.80
2019-03-18T16:36:35.682Z,1.50
2019-03-18T16:39:05.602Z,1.40
2019-03-18T16:41:34.524Z,1.30
2019-03-18T16:44:03.517Z,1.70
2019-03-18T16:46:33.037Z,1.60
2019-03-18T16:49:01.863Z,2.40
2019-03-18T16:51:30.683Z,2.50
2019-03-18T16:54:00.469Z,2.75
2019-03-18T16:56:29.324Z,5.23
2019-03-18T16:58:58.095Z,7.15
2019-03-18T17:01:26.837Z,2.27
2019-03-18T17:03:55.594Z,2.20
2019-03-18T17:06:25.408Z,1.83
2019-03-18T17:08:54.115Z,1.92
2019-03-18T17:11:22.869Z,2.22
2019-03-18T17:13:51.923Z,3.42
2019-03-18T17:16:20.709Z,1.82
2019-03-18T17:18:49.626Z,1.52
2019-03-18T17:21:18.502Z,2.00
2019-03-18T17:23:47.363Z,1.67
2019-03-18T17:26:16.395Z,1.50
2019-03-18T17:28:45.243Z,2.15
2019-03-18T17:31:14.001Z,2.20
2019-03-18T17:33:42.724Z,2.02
2019-03-18T17:36:11.609Z,1.82
2019-03-18T17:38:40.370Z,2.05
2019-03-18T17:41:09.478Z,4.05
2019-03-18T17:43:38.413Z,1.95
2019-03-18T17:46:08.374Z,1.57
2019-03-18T17:48:37.092Z,1.80
2019-03-18T17:51:05.838Z,1.85
2019-03-18T17:53:34.544Z,1.90
2019-03-18T17:56:03.216Z,1.75
2019-03-18T17:58:32.012Z,1.70
2019-03-18T18:01:01.439Z,1.92
2019-03-18T18:03:30.292Z,2.12
2019-03-18T18:05:59.418Z,1.67
2019-03-18T18:08:29.344Z,1.70
2019-03-18T18:10:58.211Z,2.05
2019-03-18T18:13:27.090Z,2.23
2019-03-18T18:15:55.957Z,1.90
2019-03-18T18:18:24.917Z,2.25
2019-03-18T18:20:53.698Z,1.60
2019-03-18T18:23:22.440Z,1.82
2019-03-18T18:25:51.312Z,2.60
2019-03-18T18:28:20.227Z,1.37
2019-03-18T18:30:48.968Z,1.27
2019-03-18T18:33:17.693Z,1.30
2019-03-18T18:35:46.499Z,1.23
2019-03-18T18:38:15.313Z,1.20
2019-03-18T18:40:44.106Z,1.15
2019-03-18T18:43:12.840Z,1.52
2019-03-18T18:45:42.026Z,0.83
2019-03-18T18:48:11.103Z,1.25
2019-03-18T18:50:39.906Z,1.43
2019-03-18T18:53:08.763Z,1.90
2019-03-18T18:55:37.545Z,1.97
2019-03-18T18:58:06.323Z,1.32
2019-03-18T19:00:35.250Z,1.50
2019-03-18T19:03:04.179Z,1.77
2019-03-18T19:05:33.243Z,1.75
2019-03-18T19:08:05.257Z,1.60
2019-03-18T19:10:33.985Z,1.60
2019-03-18T19:13:03.171Z,1.80
2019-03-18T19:15:31.989Z,1.52
2019-03-18T19:18:00.813Z,1.40
2019-03-18T19:20:29.615Z,1.75
2019-03-18T19:22:58.350Z,1.70
2019-03-18T19:25:27.099Z,1.80
2019-03-18T19:27:55.872Z,1.50
2019-03-18T19:30:24.652Z,1.53
2019-03-18T19:32:53.474Z,1.32
2019-03-18T19:35:25.718Z,1.77
2019-03-18T19:37:54.446Z,1.60
2019-03-18T19:40:23.454Z,1.65
2019-03-18T19:42:52.292Z,1.80
2019-03-18T19:45:22.135Z,2.17
2019-03-18T19:47:53.167Z,2.12
2019-03-18T19:50:21.576Z,2.42
2019-03-18T19:52:50.473Z,2.00
2019-03-18T19:55:19.414Z,1.90
2019-03-18T19:57:48.369Z,1.53
2019-03-18T20:00:18.063Z,1.65
2019-03-18T20:02:46.811Z,1.72
2019-03-18T20:05:18.940Z,1.70
2019-03-18T20:07:47.131Z,1.57
2019-03-18T20:10:15.377Z,1.98
2019-03-18T20:12:45.112Z,1.80
2019-03-18T20:15:13.976Z,2.22
2019-03-18T20:17:42.788Z,2.35
2019-03-18T20:20:13.012Z,2.07
2019-03-18T20:22:41.796Z,1.72
2019-03-18T20:25:10.512Z,1.90
2019-03-18T20:27:39.290Z,2.15
2019-03-18T20:30:10.448Z,1.70
2019-03-18T20:32:39.225Z,2.40
2019-03-18T20:35:08.745Z,1.80
2019-03-18T20:37:38.570Z,1.82
2019-03-18T20:40:07.721Z,1.40
2019-03-18T20:42:36.652Z,2.00
2019-03-18T20:45:05.830Z,1.77
2019-03-18T20:47:34.837Z,1.62
2019-03-18T20:50:04.093Z,2.02
2019-03-18T20:52:33.159Z,1.85
2019-03-18T20:55:02.017Z,2.05
2019-03-18T20:57:30.799Z,2.17
2019-03-18T20:59:59.706Z,1.65
2019-03-18T21:02:29.684Z,2.17
2019-03-18T21:04:58.641Z,2.25
2019-03-18T21:07:27.542Z,2.37
2019-03-18T21:09:56.382Z,2.00
2019-03-18T21:12:26.311Z,1.98
2019-03-18T21:14:55.335Z,2.27
2019-03-18T21:17:24.131Z,1.90
2019-03-18T21:19:54.065Z,2.30
2019-03-18T21:22:22.951Z,1.90
2019-03-18T21:24:51.766Z,1.85
2019-03-18T21:27:20.634Z,1.80
2019-03-18T21:29:50.279Z,2.30
2019-03-18T21:32:19.059Z,1.98
2019-03-18T21:34:47.737Z,2.30
2019-03-18T21:37:16.516Z,2.05
2019-03-18T21:39:45.218Z,1.97
2019-03-18T21:42:13.958Z,1.90
2019-03-18T21:44:42.641Z,2.03
2019-03-18T21:47:11.680Z,1.77
2019-03-18T21:49:42.426Z,2.07
2019-03-18T21:52:16.683Z,1.90
2019-03-18T21:54:44.952Z,1.90
2019-03-18T21:57:13.708Z,1.83
2019-03-18T21:59:43.543Z,2.05
2019-03-18T22:02:13.937Z,1.77
2019-03-18T22:04:42.697Z,1.98
2019-03-18T22:07:13.919Z,1.75
2019-03-18T22:09:42.607Z,1.92
2019-03-18T22:12:11.571Z,1.77
2019-03-18T22:14:40.227Z,1.70
2019-03-18T22:17:08.900Z,1.40
2019-03-18T22:19:37.609Z,1.60
2019-03-18T22:22:06.822Z,1.70
2019-03-18T22:24:44.694Z,2.15
2019-03-18T22:27:05.913Z,1.75
2019-03-18T22:29:34.757Z,2.40
2019-03-18T22:32:03.537Z,1.72
2019-03-18T22:34:32.218Z,1.80
2019-03-18T22:37:01.269Z,1.95
2019-03-18T22:39:29.933Z,1.70
2019-03-18T22:41:58.610Z,1.80
2019-03-18T22:44:27.321Z,2.10
2019-03-18T22:46:55.991Z,1.92
2019-03-18T22:49:24.689Z,1.82
2019-03-18T22:51:53.396Z,1.57
2019-03-18T22:54:22.089Z,1.47
2019-03-18T22:56:51.333Z,1.55
2019-03-18T22:59:20.011Z,1.60
2019-03-18T23:01:48.675Z,1.62
2019-03-18T23:04:18.031Z,2.00
2019-03-18T23:06:47.953Z,1.70
2019-03-18T23:09:16.617Z,2.10
2019-03-18T23:11:45.294Z,1.85
2019-03-18T23:14:16.797Z,1.67
2019-03-18T23:16:45.546Z,1.95
2019-03-18T23:19:14.272Z,1.80
2019-03-18T23:21:43.010Z,2.20
2019-03-18T23:24:12.633Z,2.08
2019-03-18T23:26:41.425Z,1.70
2019-03-18T23:29:10.099Z,1.70
2019-03-18T23:31:38.917Z,1.50
2019-03-18T23:34:07.701Z,2.15
2019-03-18T23:36:36.437Z,1.40
2019-03-18T23:39:06.587Z,1.67
2019-03-18T23:41:35.246Z,1.57
2019-03-18T23:44:03.923Z,1.77
2019-03-18T23:46:32.641Z,1.62
2019-03-18T23:49:01.429Z,1.52
2019-03-18T23:51:30.116Z,1.70
2019-03-18T23:53:58.840Z,1.95
2019-03-18T23:56:27.499Z,1.40
2019-03-18T23:58:57.306Z,1.77
